Time;durP1;ratioP1;P1;durP2;ratioP2;P2;SDS_P1;SDS_P2;PMS_P1;PMS_P2;Temp;Humidity;BMP_temperature;BMP_pressure;BME280_temperature;BME280_humidity;BME280_pressure;Samples;Min_cycle;Max_cycle;Signal;HPM_P1;HPM_P2
2021/09/17 00:02:13;;;;;;;55.22;28.00;;;;;;;14.34;100.00;101864.50;5036253;28;20053;-66
2021/09/17 00:04:41;;;;;;;50.50;24.65;;;;;;;14.37;100.00;101865.28;5038387;28;20129;-66
2021/09/17 00:07:09;;;;;;;57.83;29.30;;;;;;;14.38;100.00;101861.66;5034523;28;20404;-66
2021/09/17 00:09:37;;;;;;;53.30;26.25;;;;;;;14.39;100.00;101862.56;5035886;28;20049;-66
2021/09/17 00:12:05;;;;;;;50.60;24.20;;;;;;;14.41;100.00;101860.69;5038964;28;20049;-66
2021/09/17 00:14:34;;;;;;;47.92;24.92;;;;;;;14.46;100.00;101872.16;5036523;28;20052;-66
2021/09/17 00:17:02;;;;;;;51.45;26.08;;;;;;;14.45;100.00;101862.34;5037393;28;20088;-66
2021/09/17 00:19:30;;;;;;;48.65;25.33;;;;;;;14.51;100.00;101864.84;5033337;28;20049;-66
2021/09/17 00:21:58;;;;;;;57.40;27.75;;;;;;;14.52;100.00;101852.28;5038365;28;20576;-66
2021/09/17 00:24:26;;;;;;;50.92;25.13;;;;;;;14.53;100.00;101862.97;5035213;28;20045;-66
2021/09/17 00:26:53;;;;;;;50.22;24.88;;;;;;;14.52;100.00;101853.19;5037101;28;20052;-66
2021/09/17 00:29:21;;;;;;;54.58;27.63;;;;;;;14.54;100.00;101856.69;5036159;28;20041;-66
2021/09/17 00:31:50;;;;;;;51.95;25.15;;;;;;;14.55;100.00;101855.75;5035138;28;20074;-66
2021/09/17 00:34:18;;;;;;;50.88;24.23;;;;;;;14.59;100.00;101850.31;5033129;28;20462;-66
2021/09/17 00:36:46;;;;;;;56.60;26.58;;;;;;;14.63;100.00;101852.00;5035531;28;20218;-66
2021/09/17 00:39:14;;;;;;;46.67;25.65;;;;;;;14.65;100.00;101847.44;5034911;28;20061;-66
2021/09/17 00:41:42;;;;;;;51.45;25.40;;;;;;;14.62;100.00;101847.53;5038084;28;20183;-66
2021/09/17 00:44:11;;;;;;;48.80;25.92;;;;;;;14.62;100.00;101847.53;5034256;28;20060;-66
2021/09/17 00:46:39;;;;;;;56.05;28.10;;;;;;;14.67;100.00;101849.13;5038441;28;20053;-66
2021/09/17 00:49:08;;;;;;;52.72;24.65;;;;;;;14.70;100.00;101845.47;5032325;28;20146;-66
2021/09/17 00:51:36;;;;;;;51.08;26.30;;;;;;;14.71;100.00;101842.75;5035462;28;20437;-66
2021/09/17 00:54:04;;;;;;;43.60;23.92;;;;;;;14.73;100.00;101845.38;5036274;28;20084;-66
2021/09/17 00:56:33;;;;;;;43.95;24.77;;;;;;;14.74;100.00;101841.75;5035051;28;20132;-65
2021/09/17 00:59:00;;;;;;;52.33;26.50;;;;;;;14.74;100.00;101833.69;5040627;28;20120;-65
2021/09/17 01:01:28;;;;;;;49.42;25.25;;;;;;;14.75;100.00;101843.50;5034744;28;20076;-65
2021/09/17 01:03:56;;;;;;;45.50;21.85;;;;;;;14.75;100.00;101838.13;5041813;28;20055;-65
2021/09/17 01:06:26;;;;;;;49.22;23.58;;;;;;;14.79;100.00;101833.53;5038748;28;20045;-66
2021/09/17 01:08:54;;;;;;;42.08;23.40;;;;;;;14.78;100.00;101829.97;5040768;28;20167;-65
2021/09/17 01:11:22;;;;;;;42.55;22.45;;;;;;;14.81;100.00;101824.47;5046129;28;20523;-65
2021/09/17 01:13:51;;;;;;;46.85;24.17;;;;;;;14.82;100.00;101822.69;5038920;28;20054;-66
2021/09/17 01:16:19;;;;;;;46.53;23.50;;;;;;;14.82;100.00;101822.69;5041598;28;20075;-65
2021/09/17 01:18:46;;;;;;;43.97;25.25;;;;;;;14.83;100.00;101821.75;5039500;28;20111;-65
2021/09/17 01:21:15;;;;;;;46.13;23.40;;;;;;;14.82;100.00;101820.00;5037485;28;20465;-68
2021/09/17 01:23:43;;;;;;;45.75;24.00;;;;;;;14.82;100.00;101815.50;5039822;28;20492;-69
2021/09/17 01:26:11;;;;;;;45.95;22.95;;;;;;;14.81;100.00;101812.88;5038803;28;20620;-68
2021/09/17 01:28:39;;;;;;;50.85;25.83;;;;;;;14.82;100.00;101810.13;5043681;28;20053;-68
2021/09/17 01:31:07;;;;;;;41.72;23.83;;;;;;;14.83;100.00;101814.59;5036263;28;20056;-68
2021/09/17 01:33:35;;;;;;;40.00;22.90;;;;;;;14.85;100.00;101809.16;5041551;28;20075;-68
2021/09/17 01:36:08;;;;;;;44.45;23.75;;;;;;;14.88;100.00;101807.25;5040454;28;20547;-68
2021/09/17 01:38:40;;;;;;;44.45;25.35;;;;;;;14.90;100.00;101808.06;5040110;28;20100;-68
2021/09/17 01:41:09;;;;;;;43.42;22.85;;;;;;;14.92;100.00;101799.94;5039288;28;20589;-68
2021/09/17 01:43:37;;;;;;;41.40;21.50;;;;;;;14.92;100.00;101800.81;5037814;28;20052;-68
2021/09/17 01:46:04;;;;;;;40.28;22.58;;;;;;;14.93;100.00;101782.88;5037012;28;20049;-68
2021/09/17 01:48:32;;;;;;;42.17;25.13;;;;;;;14.94;100.00;101795.38;5037910;28;20613;-68
2021/09/17 01:51:00;;;;;;;45.03;24.65;;;;;;;14.94;100.00;101795.38;5044092;28;20052;-70
2021/09/17 01:53:28;;;;;;;42.35;21.65;;;;;;;14.94;100.00;101790.00;5037803;28;20114;-69
2021/09/17 01:55:57;;;;;;;45.15;24.35;;;;;;;14.96;100.00;101790.84;5038371;28;20084;-69
2021/09/17 01:58:25;;;;;;;44.33;24.40;;;;;;;14.98;100.00;101786.28;5034729;28;20474;-69
2021/09/17 02:00:53;;;;;;;48.67;26.52;;;;;;;14.99;100.00;101784.50;5038348;28;20121;-69
2021/09/17 02:03:21;;;;;;;45.10;24.25;;;;;;;14.98;100.00;101780.03;5038706;28;20053;-69
2021/09/17 02:05:48;;;;;;;49.00;25.75;;;;;;;14.97;100.00;101773.78;5036051;28;20080;-69
2021/09/17 02:08:16;;;;;;;54.25;26.20;;;;;;;15.01;100.00;101769.19;5035952;28;20432;-69
2021/09/17 02:10:44;;;;;;;48.67;25.08;;;;;;;14.98;100.00;101778.22;5038735;28;20085;-69
2021/09/17 02:13:17;;;;;;;49.30;26.80;;;;;;;14.98;100.00;101769.28;5035861;28;20053;-69
2021/09/17 02:15:45;;;;;;;46.40;25.17;;;;;;;15.01;100.00;101777.25;5039862;28;20656;-66
2021/09/17 02:18:13;;;;;;;50.83;27.35;;;;;;;15.02;100.00;101760.19;5035054;28;20049;-66
2021/09/17 02:20:41;;;;;;;54.95;28.95;;;;;;;15.06;100.00;101769.88;5037747;28;20202;-67
2021/09/17 02:23:09;;;;;;;62.30;30.15;;;;;;;15.10;100.00;101763.47;5037901;28;20091;-67
2021/09/17 02:25:36;;;;;;;59.83;31.17;;;;;;;15.13;100.00;101764.22;5039527;28;20138;-67
2021/09/17 02:28:05;;;;;;;66.53;31.50;;;;;;;15.15;100.00;101760.59;5036543;28;20135;-67
2021/09/17 02:30:34;;;;;;;67.20;33.75;;;;;;;15.18;100.00;101760.50;5037793;28;20530;-65
2021/09/17 02:33:02;;;;;;;63.20;31.90;;;;;;;15.18;100.00;101753.31;5038144;28;20049;-67
2021/09/17 02:35:30;;;;;;;67.50;32.83;;;;;;;15.18;100.00;101756.00;5040090;28;20051;-67
2021/09/17 02:37:58;;;;;;;67.55;31.90;;;;;;;15.17;100.00;101754.25;5035686;28;20049;-67
2021/09/17 02:40:26;;;;;;;74.38;34.33;;;;;;;15.16;100.00;101751.63;5038356;28;20127;-67
2021/09/17 02:42:53;;;;;;;65.93;31.63;;;;;;;15.15;100.00;101756.09;5036513;28;20598;-67
2021/09/17 02:45:21;;;;;;;59.65;29.85;;;;;;;15.16;100.00;101752.50;5037505;28;20057;-67
2021/09/17 02:47:50;;;;;;;66.65;29.75;;;;;;;15.16;100.00;101747.13;5039314;28;20095;-71
2021/09/17 02:50:19;;;;;;;67.05;31.48;;;;;;;15.17;100.00;101746.19;5037103;28;20469;-68
2021/09/17 02:52:46;;;;;;;65.90;31.77;;;;;;;15.18;100.00;101747.06;5035240;28;20233;-68
2021/09/17 02:55:14;;;;;;;71.05;35.15;;;;;;;15.18;100.00;101744.38;5035229;28;20128;-69
2021/09/17 02:57:42;;;;;;;67.68;34.55;;;;;;;15.18;100.00;101742.56;5036500;28;20091;-69
2021/09/17 03:00:12;;;;;;;76.07;36.85;;;;;;;15.22;100.00;101735.25;5039345;28;20426;-69
2021/09/17 03:02:59;;;;;;;84.07;38.28;;;;;;;15.23;100.00;101732.50;5034590;28;20198;-69
2021/09/17 03:05:26;;;;;;;84.80;38.55;;;;;;;15.25;100.00;101725.25;5040288;28;20130;-69
2021/09/17 03:07:54;;;;;;;83.43;40.17;;;;;;;15.25;100.00;101719.88;5039558;28;20128;-69
2021/09/17 03:10:22;;;;;;;88.90;39.10;;;;;;;15.27;100.00;101717.13;5038184;28;20053;-69
2021/09/17 03:12:50;;;;;;;87.85;38.05;;;;;;;15.28;100.00;101719.78;5038482;28;20063;-69
2021/09/17 03:15:18;;;;;;;96.60;41.35;;;;;;;15.29;100.00;101710.78;5039468;28;20482;-69
2021/09/17 03:17:46;;;;;;;97.70;42.60;;;;;;;15.31;100.00;101716.09;5038081;28;20049;-69
2021/09/17 03:20:15;;;;;;;89.25;39.42;;;;;;;15.30;100.00;101714.34;5036541;28;20331;-69
2021/09/17 03:22:43;;;;;;;87.22;41.88;;;;;;;15.31;100.00;101710.72;5038671;28;20080;-69
2021/09/17 03:25:11;;;;;;;92.20;42.40;;;;;;;15.31;100.00;101700.84;5035446;28;20344;-69
2021/09/17 03:27:39;;;;;;;99.45;43.28;;;;;;;15.31;100.00;101700.84;5038420;28;20377;-69
2021/09/17 03:30:08;;;;;;;98.65;41.70;;;;;;;15.32;100.00;101699.91;5040712;28;20049;-69
2021/09/17 03:32:36;;;;;;;101.88;42.22;;;;;;;15.31;100.00;101697.28;5038510;28;20668;-69
2021/09/17 03:35:06;;;;;;;88.20;41.60;;;;;;;15.31;100.00;101699.97;5035393;28;20053;-69
2021/09/17 03:37:35;;;;;;;95.75;43.88;;;;;;;15.33;100.00;101700.78;5034659;28;20076;-69
2021/09/17 03:40:04;;;;;;;99.85;43.10;;;;;;;15.34;100.00;101696.28;5039715;28;20056;-66
2021/09/17 03:42:32;;;;;;;99.90;43.55;;;;;;;15.35;100.00;101689.97;5034392;28;20053;-66
2021/09/17 03:45:00;;;;;;;100.07;42.33;;;;;;;15.37;100.00;101691.66;5036200;28;20060;-66
2021/09/17 03:47:28;;;;;;;98.45;41.53;;;;;;;15.39;100.00;101696.97;5036721;28;20068;-66
2021/09/17 03:49:56;;;;;;;98.47;45.10;;;;;;;15.40;100.00;101691.53;5034401;28;20527;-66
2021/09/17 03:52:23;;;;;;;98.50;41.45;;;;;;;15.40;100.00;101690.66;5036646;28;20045;-66
2021/09/17 03:54:53;;;;;;;97.75;44.13;;;;;;;15.39;100.00;101700.56;5037130;28;20544;-66
2021/09/17 03:57:20;;;;;;;99.38;43.92;;;;;;;15.39;100.00;101694.28;5035520;28;20368;-66
2021/09/17 03:59:48;;;;;;;96.30;41.42;;;;;;;15.39;100.00;101689.81;5037293;28;20045;-66
2021/09/17 04:02:20;;;;;;;91.13;39.65;;;;;;;15.38;100.00;101681.78;5033429;28;20052;-66
2021/09/17 04:04:48;;;;;;;96.68;41.55;;;;;;;15.37;100.00;101682.72;5035186;28;20622;-67
2021/09/17 04:07:16;;;;;;;94.65;43.53;;;;;;;15.36;100.00;101672.88;5035012;28;20057;-66
2021/09/17 04:09:44;;;;;;;90.53;40.88;;;;;;;15.36;100.00;101680.94;5032614;28;20440;-66
2021/09/17 04:12:13;;;;;;;94.35;39.88;;;;;;;15.35;100.00;101677.38;5038152;28;20052;-70
2021/09/17 04:14:40;;;;;;;94.80;41.90;;;;;;;15.34;100.00;101677.44;5035376;28;20993;-69
2021/09/17 04:17:08;;;;;;;99.43;40.13;;;;;;;15.34;100.00;101677.44;5036594;28;20124;-69
2021/09/17 04:19:36;;;;;;;91.28;40.80;;;;;;;15.29;100.00;101689.28;5036215;28;20080;-69
2021/09/17 04:22:05;;;;;;;98.78;40.78;;;;;;;15.31;100.00;101692.78;5034919;28;20049;-69
2021/09/17 04:24:33;;;;;;;94.93;42.00;;;;;;;15.30;100.00;101682.06;5035217;28;20052;-69
2021/09/17 04:27:01;;;;;;;96.50;40.50;;;;;;;15.29;100.00;101681.19;5036423;28;20052;-69
2021/09/17 04:29:30;;;;;;;90.07;41.00;;;;;;;15.28;100.00;101686.63;5037470;28;20064;-69
2021/09/17 04:31:58;;;;;;;100.10;39.40;;;;;;;15.27;100.00;101685.78;5036147;28;20057;-69
2021/09/17 04:34:26;;;;;;;86.10;38.80;;;;;;;15.27;100.00;101684.88;5034424;28;20164;-69
2021/09/17 04:36:54;;;;;;;95.80;42.10;;;;;;;15.27;100.00;101683.09;5040289;28;20048;-69
2021/09/17 04:39:22;;;;;;;91.97;39.15;;;;;;;15.26;100.00;101683.13;5038528;28;20582;-70
2021/09/17 04:41:49;;;;;;;95.22;40.30;;;;;;;15.24;100.00;101688.56;5041773;28;20081;-69
2021/09/17 04:44:17;;;;;;;98.00;39.45;;;;;;;15.26;100.00;101689.38;5039814;28;20080;-69
2021/09/17 04:46:46;;;;;;;92.20;37.90;;;;;;;15.24;100.00;101682.31;5040525;28;20084;-69
2021/09/17 04:49:14;;;;;;;93.88;39.55;;;;;;;15.24;100.00;101679.63;5041368;28;20049;-69
2021/09/17 04:51:42;;;;;;;84.78;35.72;;;;;;;15.20;100.00;101678.84;5037710;28;20613;-69
2021/09/17 04:54:12;;;;;;;96.63;38.53;;;;;;;15.18;100.00;101687.91;5039524;28;20515;-69
2021/09/17 04:56:41;;;;;;;90.00;38.50;;;;;;;15.17;100.00;101687.06;5038133;28;20505;-69
2021/09/17 04:59:10;;;;;;;84.53;36.95;;;;;;;15.15;100.00;101688.03;5038532;28;20044;-69
2021/09/17 05:01:38;;;;;;;86.28;37.30;;;;;;;15.15;100.00;101686.22;5039774;28;20135;-68
2021/09/17 05:04:08;;;;;;;93.57;37.78;;;;;;;15.15;100.00;101691.59;5039128;28;20419;-69
2021/09/17 05:06:36;;;;;;;85.30;35.45;;;;;;;15.16;100.00;101687.13;5041903;28;20064;-66
2021/09/17 05:09:04;;;;;;;94.03;37.30;;;;;;;15.13;100.00;101690.78;5034055;28;20084;-69
2021/09/17 05:11:32;;;;;;;85.43;35.97;;;;;;;15.11;100.00;101689.97;5041163;28;20057;-69
2021/09/17 05:14:05;;;;;;;86.05;36.05;;;;;;;15.10;100.00;101693.56;5038111;28;20084;-66
2021/09/17 05:16:33;;;;;;;87.93;39.83;;;;;;;15.09;100.00;101686.47;5040091;28;20053;-69
2021/09/17 05:19:01;;;;;;;97.43;39.92;;;;;;;15.09;100.00;101683.78;5039589;28;20172;-69
2021/09/17 05:21:30;;;;;;;98.55;40.97;;;;;;;15.06;100.00;101686.56;5037833;28;20531;-69
2021/09/17 05:23:58;;;;;;;89.70;37.63;;;;;;;15.06;100.00;101686.56;5042622;28;20110;-69
2021/09/17 05:26:25;;;;;;;90.35;41.97;;;;;;;15.04;100.00;101680.38;5033985;28;20053;-69
2021/09/17 05:28:54;;;;;;;81.72;35.40;;;;;;;15.01;100.00;101693.94;5040954;28;20114;-68
2021/09/17 05:31:22;;;;;;;98.50;40.17;;;;;;;14.99;100.00;101685.06;5041057;28;20388;-69
2021/09/17 05:33:50;;;;;;;92.95;36.15;;;;;;;14.97;100.00;101685.09;5037484;28;20048;-69
2021/09/17 05:36:20;;;;;;;96.22;39.15;;;;;;;14.94;100.00;101685.22;5042049;28;20053;-69
2021/09/17 05:38:49;;;;;;;89.18;40.17;;;;;;;14.97;100.00;101677.03;5037391;28;20111;-69
2021/09/17 05:41:17;;;;;;;97.95;39.58;;;;;;;14.94;100.00;101688.78;5037831;28;20048;-69
2021/09/17 05:43:45;;;;;;;87.32;37.70;;;;;;;14.94;100.00;101686.09;5035743;28;20114;-69
2021/09/17 05:46:12;;;;;;;87.68;38.53;;;;;;;14.91;100.00;101688.00;5036548;28;20132;-69
2021/09/17 05:48:40;;;;;;;83.28;36.55;;;;;;;14.87;100.00;101686.38;5040754;28;20095;-69
2021/09/17 05:51:08;;;;;;;89.38;39.03;;;;;;;14.88;100.00;101693.50;5037996;28;20061;-69
2021/09/17 05:53:57;;;;;;;98.78;42.67;;;;;;;14.89;100.00;101689.88;5040140;28;20044;-69
2021/09/17 05:56:26;;;;;;;88.22;40.58;;;;;;;14.87;100.00;101687.25;5036622;28;20052;-69
2021/09/17 05:58:54;;;;;;;94.10;42.22;;;;;;;14.94;100.00;101682.53;5039711;28;20053;-69
2021/09/17 06:01:22;;;;;;;96.47;44.47;;;;;;;15.02;100.00;101684.94;5036756;28;20060;-69
2021/09/17 06:03:50;;;;;;;88.03;40.05;;;;;;;15.03;100.00;101681.31;5036418;28;20127;-69
2021/09/17 06:06:18;;;;;;;95.03;40.05;;;;;;;15.05;100.00;101690.19;5040711;28;20064;-69
2021/09/17 06:08:48;;;;;;;84.75;36.60;;;;;;;15.09;100.00;101691.84;5035314;28;20049;-69
2021/09/17 06:11:17;;;;;;;89.88;36.83;;;;;;;15.13;100.00;101690.78;5037783;28;20049;-69
2021/09/17 06:13:45;;;;;;;94.13;41.53;;;;;;;15.15;100.00;101701.47;5036154;28;20075;-69
2021/09/17 06:16:13;;;;;;;97.88;43.20;;;;;;;15.20;100.00;101691.41;5042084;28;20080;-69
2021/09/17 06:18:46;;;;;;;89.18;39.25;;;;;;;15.24;100.00;101687.69;5036595;28;20049;-69
2021/09/17 06:21:14;;;;;;;97.68;39.70;;;;;;;15.26;100.00;101686.69;5039583;28;20049;-69
2021/09/17 06:23:42;;;;;;;101.32;42.63;;;;;;;15.38;100.00;101690.72;5038013;28;20045;-69
2021/09/17 06:26:10;;;;;;;101.43;44.42;;;;;;;15.41;100.00;101687.03;5036484;28;20053;-69
2021/09/17 06:28:39;;;;;;;97.35;43.58;;;;;;;15.48;100.00;101691.25;5037384;28;20057;-69
2021/09/17 06:31:07;;;;;;;92.25;41.15;;;;;;;15.54;100.00;101690.13;5037879;28;20048;-68
2021/09/17 06:33:35;;;;;;;102.35;42.47;;;;;;;15.55;100.00;101698.13;5036233;28;20485;-69
2021/09/17 06:36:03;;;;;;;97.40;42.92;;;;;;;15.60;100.00;101687.19;5038702;28;20187;-69
2021/09/17 06:38:31;;;;;;;105.70;41.22;;;;;;;15.71;100.00;101689.44;5037217;28;20509;-69
2021/09/17 06:40:59;;;;;;;110.13;44.65;;;;;;;15.75;100.00;101688.38;5037694;28;20060;-70
2021/09/17 06:43:26;;;;;;;99.93;43.10;;;;;;;15.78;100.00;101689.19;5036936;28;20134;-69
2021/09/17 06:45:55;;;;;;;107.47;42.42;;;;;;;15.80;100.00;101684.63;5036783;28;20055;-69
2021/09/17 06:48:23;;;;;;;98.07;40.30;;;;;;;15.87;100.00;101682.56;5035594;28;20624;-66
2021/09/17 06:50:51;;;;;;;102.88;43.08;;;;;;;15.87;100.00;101687.94;5038841;28;20459;-67
2021/09/17 06:53:19;;;;;;;103.85;44.67;;;;;;;15.93;100.00;101692.19;5035750;28;20067;-66
2021/09/17 06:55:47;;;;;;;108.97;45.75;;;;;;;15.96;100.00;101689.38;5039420;28;20056;-66
2021/09/17 06:58:16;;;;;;;104.25;43.75;;;;;;;16.08;100.00;101691.56;5037193;28;20072;-66
2021/09/17 07:00:44;;;;;;;100.50;41.17;;;;;;;16.10;100.00;101683.41;5037042;28;20681;-65
2021/09/17 07:03:14;;;;;;;99.70;43.58;;;;;;;16.10;100.00;101702.25;5037889;28;20052;-66
2021/09/17 07:05:42;;;;;;;99.88;42.83;;;;;;;16.17;100.00;101687.59;5038474;28;20072;-66
2021/09/17 07:08:11;;;;;;;105.95;43.42;;;;;;;16.23;100.00;101698.13;5037131;28;20552;-66
2021/09/17 07:10:40;;;;;;;103.10;41.75;;;;;;;16.32;100.00;101688.78;5037945;28;20557;-66
2021/09/17 07:13:08;;;;;;;102.72;44.00;;;;;;;16.29;100.00;101692.44;5034847;28;20056;-69
2021/09/17 07:15:36;;;;;;;104.32;45.88;;;;;;;16.35;100.00;101684.13;5035794;28;20491;-68
2021/09/17 07:18:04;;;;;;;102.10;43.15;;;;;;;16.42;100.00;101684.75;5038610;28;20048;-68
2021/09/17 07:20:35;;;;;;;99.72;42.72;;;;;;;16.44;100.00;101685.53;5036925;28;20083;-68
2021/09/17 07:23:04;;;;;;;107.25;44.83;;;;;;;16.42;100.00;101692.81;5038272;28;20045;-68
2021/09/17 07:25:32;;;;;;;98.65;42.17;;;;;;;16.47;100.00;101684.53;5037998;28;20052;-68
2021/09/17 07:28:01;;;;;;;105.05;42.80;;;;;;;16.56;99.92;101684.13;5034833;28;20111;-65
2021/09/17 07:30:29;;;;;;;113.15;40.78;;;;;;;16.72;100.00;101674.44;5034759;28;20065;-65
2021/09/17 07:32:57;;;;;;;101.53;45.08;;;;;;;16.71;99.18;101686.16;5037724;28;20102;-65
2021/09/17 07:35:25;;;;;;;98.60;43.13;;;;;;;16.76;99.00;101669.78;5035987;28;20052;-65
2021/09/17 07:37:54;;;;;;;96.05;42.40;;;;;;;16.93;98.51;101672.63;5036082;28;20048;-65
2021/09/17 07:40:22;;;;;;;108.03;43.72;;;;;;;17.44;97.60;101678.34;5039169;28;20054;-65
2021/09/17 07:42:50;;;;;;;103.03;42.85;;;;;;;17.84;96.21;101675.53;5035724;28;20424;-65
2021/09/17 07:45:21;;;;;;;95.25;42.70;;;;;;;18.01;93.72;101678.28;5036979;28;20080;-65
2021/09/17 07:47:49;;;;;;;117.35;48.53;;;;;;;18.05;93.83;101676.34;5034293;28;20549;-65
2021/09/17 07:50:17;;;;;;;106.88;45.70;;;;;;;17.78;93.60;101678.56;5038279;28;20136;-68
2021/09/17 07:52:45;;;;;;;115.65;46.78;;;;;;;17.68;94.01;101672.72;5037142;28;20076;-68
2021/09/17 07:55:14;;;;;;;112.90;48.30;;;;;;;17.96;92.86;101674.09;5035797;28;20055;-68
2021/09/17 07:57:43;;;;;;;115.18;49.65;;;;;;;18.34;92.51;101679.38;5037061;28;20057;-69
2021/09/17 08:00:13;;;;;;;118.82;48.40;;;;;;;18.18;90.44;101679.28;5034512;28;20402;-69
2021/09/17 08:02:41;;;;;;;110.82;46.70;;;;;;;18.38;89.72;101686.38;5037794;28;20092;-69
2021/09/17 08:05:13;;;;;;;110.97;46.10;;;;;;;18.29;89.59;101691.28;5036167;28;20049;-69
2021/09/17 08:07:41;;;;;;;95.30;41.13;;;;;;;18.30;89.18;101681.34;5035552;28;20053;-68
2021/09/17 08:10:09;;;;;;;103.53;41.92;;;;;;;17.89;90.67;101687.00;5034257;28;20040;-69
2021/09/17 08:12:39;;;;;;;106.78;42.28;;;;;;;18.16;90.25;101690.16;5037163;28;20049;-68
2021/09/17 08:15:09;;;;;;;117.15;47.65;;;;;;;17.96;90.32;101690.28;5036240;28;20049;-69
2021/09/17 08:17:37;;;;;;;109.03;46.97;;;;;;;18.31;89.36;101693.06;5036834;28;20082;-66
2021/09/17 08:20:07;;;;;;;110.05;44.92;;;;;;;18.45;88.85;101695.91;5034797;28;20065;-65
2021/09/17 08:22:35;;;;;;;102.43;43.63;;;;;;;18.33;88.70;101702.81;5036916;28;20102;-65
2021/09/17 08:25:05;;;;;;;98.80;41.38;;;;;;;17.97;90.56;101697.44;5035460;28;20096;-66
2021/09/17 08:27:33;;;;;;;104.70;42.13;;;;;;;18.34;89.37;101701.88;5036991;28;20584;-66
2021/09/17 08:30:02;;;;;;;93.15;41.25;;;;;;;18.70;87.73;101706.31;5037296;28;20056;-66
2021/09/17 08:32:30;;;;;;;97.70;41.92;;;;;;;18.81;87.64;101703.03;5035561;28;20399;-65
2021/09/17 08:34:58;;;;;;;98.65;39.50;;;;;;;18.89;86.84;101714.34;5035170;28;20056;-66
2021/09/17 08:37:26;;;;;;;100.32;40.25;;;;;;;19.22;85.38;101700.84;5036151;28;20064;-66
2021/09/17 08:39:53;;;;;;;91.15;40.72;;;;;;;19.21;84.66;101709.06;5033069;28;20060;-66
2021/09/17 08:42:22;;;;;;;102.47;39.92;;;;;;;19.34;84.33;101703.81;5036531;28;20142;-66
2021/09/17 08:44:50;;;;;;;85.97;37.65;;;;;;;19.36;83.88;101702.78;5037230;28;20060;-66
2021/09/17 08:47:20;;;;;;;88.40;39.65;;;;;;;19.71;83.06;101699.06;5036102;28;20531;-66
2021/09/17 08:49:48;;;;;;;96.32;41.92;;;;;;;19.41;82.43;101711.53;5033089;28;20049;-65
2021/09/17 08:52:16;;;;;;;86.93;38.17;;;;;;;19.57;83.20;101699.84;5035158;28;20060;-66
2021/09/17 08:54:47;;;;;;;88.70;38.90;;;;;;;19.56;83.69;101703.50;5034054;28;20045;-66
2021/09/17 08:57:15;;;;;;;80.25;36.78;;;;;;;19.87;81.97;101707.19;5036767;28;20435;-66
2021/09/17 08:59:43;;;;;;;86.22;37.75;;;;;;;19.67;82.74;101708.31;5037736;28;20548;-66
2021/09/17 09:02:23;;;;;;;77.97;36.08;;;;;;;19.73;81.57;101705.25;5036025;28;20053;-66
2021/09/17 09:05:00;;;;;;;72.35;35.08;;;;;;;20.12;80.07;101715.63;5034142;28;20055;-66
2021/09/17 09:07:34;;;;;;;76.63;35.53;;;;;;;20.61;79.10;101701.00;5035045;28;20114;-66
2021/09/17 09:10:08;;;;;;;71.63;34.20;;;;;;;20.74;78.20;101713.84;5034723;28;20099;-66
2021/09/17 09:12:39;;;;;;;68.78;33.80;;;;;;;20.77;77.55;101709.13;5035888;28;20470;-68
2021/09/17 09:15:15;;;;;;;69.40;33.60;;;;;;;20.48;77.61;101711.75;5036698;28;20071;-66
2021/09/17 09:17:46;;;;;;;66.85;33.78;;;;;;;20.73;77.26;101707.56;5033526;28;20052;-66
2021/09/17 09:20:25;;;;;;;59.72;32.67;;;;;;;20.48;76.85;101705.41;5036448;28;20088;-65
2021/09/17 09:23:07;;;;;;;60.67;29.50;;;;;;;20.29;78.64;101709.22;5039818;28;20048;-66
2021/09/17 09:25:37;;;;;;;58.40;25.77;;;;;;;19.89;78.73;101706.16;5036584;28;20537;-66
2021/09/17 09:28:12;;;;;;;56.00;28.88;;;;;;;20.10;78.66;101714.88;5037700;28;20060;-66
2021/09/17 09:30:40;;;;;;;56.15;28.60;;;;;;;19.70;79.73;101706.31;5041171;28;20314;-65
2021/09/17 09:33:23;;;;;;;62.00;30.67;;;;;;;19.62;80.18;101714.00;5038521;28;20532;-66
2021/09/17 09:36:00;;;;;;;47.60;25.38;;;;;;;20.07;77.68;101709.63;5040082;28;20810;-65
2021/09/17 09:38:30;;;;;;;41.25;20.58;;;;;;;20.69;75.46;101714.16;5040155;28;20048;-66
2021/09/17 09:40:59;;;;;;;41.72;23.00;;;;;;;20.65;75.72;101709.84;5039884;28;20048;-65
2021/09/17 09:43:30;;;;;;;37.10;19.75;;;;;;;21.46;73.96;101709.34;5037185;28;20052;-65
2021/09/17 09:46:39;;;;;;;42.42;22.13;;;;;;;22.11;72.71;101706.00;5037513;28;20057;-66
2021/09/17 09:49:15;;;;;;;39.40;20.35;;;;;;;21.71;70.51;101705.94;5004716;28;20050;-65
2021/09/17 09:51:54;;;;;;;31.30;19.30;;;;;;;21.56;68.97;101694.22;5036377;28;20545;-65
2021/09/17 09:54:24;;;;;;;35.53;19.52;;;;;;;21.59;69.71;101704.88;5039993;28;20080;-65
2021/09/17 09:56:52;;;;;;;35.03;18.75;;;;;;;21.61;68.60;101693.94;5035552;28;20349;-66
2021/09/17 09:59:24;;;;;;;34.45;18.33;;;;;;;21.67;68.24;101698.94;5039519;28;20680;-65
2021/09/17 10:01:57;;;;;;;34.80;18.27;;;;;;;21.94;67.10;101696.25;5038061;28;20087;-65
2021/09/17 10:04:28;;;;;;;36.33;19.17;;;;;;;22.27;67.94;101703.13;5036927;28;20127;-65
2021/09/17 10:07:03;;;;;;;35.63;19.55;;;;;;;21.99;67.88;101698.66;5038576;28;20056;-65
2021/09/17 10:09:31;;;;;;;29.63;17.58;;;;;;;22.56;66.73;101709.31;5036730;28;20749;-65
2021/09/17 10:12:00;;;;;;;34.35;17.92;;;;;;;22.40;66.81;101705.03;5038836;28;20654;-66
2021/09/17 10:14:30;;;;;;;37.65;21.30;;;;;;;22.17;66.56;101704.72;5036825;28;20440;-66
2021/09/17 10:16:59;;;;;;;36.13;17.58;;;;;;;22.93;66.07;101705.84;5038404;28;20045;-66
2021/09/17 10:19:29;;;;;;;33.83;18.65;;;;;;;22.53;65.85;101706.81;5037993;28;20083;-66
2021/09/17 10:21:59;;;;;;;37.70;17.15;;;;;;;22.78;64.67;101712.38;5036349;28;20092;-65
2021/09/17 10:24:36;;;;;;;33.25;18.27;;;;;;;22.98;64.74;101702.81;5040766;28;20081;-64
2021/09/17 10:27:06;;;;;;;31.25;17.85;;;;;;;23.26;63.47;101701.75;5036445;28;20106;-65
2021/09/17 10:29:35;;;;;;;31.38;17.42;;;;;;;23.16;63.45;101692.50;5038350;28;20277;-65
2021/09/17 10:32:04;;;;;;;28.27;16.00;;;;;;;23.59;62.85;101686.66;5037196;28;20759;-64
2021/09/17 10:34:39;;;;;;;28.00;16.73;;;;;;;23.59;61.90;101689.38;5038168;28;20053;-64
2021/09/17 10:37:08;;;;;;;28.90;15.18;;;;;;;23.39;61.85;101688.97;5036623;28;20080;-64
2021/09/17 10:39:36;;;;;;;32.78;18.85;;;;;;;23.47;62.31;101686.56;5039050;28;20056;-64
2021/09/17 10:42:15;;;;;;;24.50;14.57;;;;;;;23.96;60.63;101694.84;5036610;28;20484;-65
2021/09/17 10:45:18;;;;;;;17.05;9.07;;;;;;;23.87;60.37;101680.03;5038643;28;20139;-65
2021/09/17 10:48:01;;;;;;;13.98;7.72;;;;;;;23.20;61.24;101689.44;5036857;28;20057;-66
2021/09/17 10:50:43;;;;;;;;;;;;;;;23.74;59.35;101679.19;5036507;28;20418;-65
2021/09/17 10:53:13;;;;;;;12.13;7.43;;;;;;;23.91;58.06;101683.41;5039657;28;20014;-65
2021/09/17 10:56:05;;;;;;;15.02;8.18;;;;;;;23.97;58.13;101688.38;5037445;28;20053;-65
2021/09/17 10:58:34;;;;;;;13.07;7.20;;;;;;;24.60;58.04;101678.13;5037403;28;20060;-65
2021/09/17 11:01:04;;;;;;;12.73;6.78;;;;;;;24.69;57.20;101671.06;5036867;28;20056;-67
2021/09/17 11:03:57;;;;;;;11.38;5.93;;;;;;;24.17;57.52;101678.69;5038558;28;20041;-66
2021/09/17 11:06:29;;;;;;;11.35;5.88;;;;;;;25.00;55.94;101674.97;5040276;28;20045;-65
2021/09/17 11:09:00;;;;;;;9.55;5.47;;;;;;;25.08;54.55;101679.78;5035196;28;20375;-66
2021/09/17 11:11:34;;;;;;;7.97;4.82;;;;;;;24.66;53.02;101677.66;5041047;28;20045;-65
2021/09/17 11:14:04;;;;;;;9.70;5.18;;;;;;;23.74;53.96;101682.78;5034920;28;20472;-68
2021/09/17 11:16:33;;;;;;;11.13;5.57;;;;;;;24.09;53.00;101679.25;5040648;28;20118;-69